createdAt,value
2017-07-15T00:00:40.755Z,100867
2017-07-15T00:03:08.920Z,100865
2017-07-15T00:05:37.078Z,100862
2017-07-15T00:08:05.280Z,100864
2017-07-15T00:10:33.462Z,100865
2017-07-15T00:13:01.627Z,100879
2017-07-15T00:15:29.783Z,100876
2017-07-15T00:17:58.000Z,100877
2017-07-15T00:20:26.156Z,100883
2017-07-15T00:22:54.318Z,100878
2017-07-15T00:25:22.522Z,100886
2017-07-15T00:27:50.691Z,100895
2017-07-15T00:30:18.860Z,100881
2017-07-15T00:32:47.001Z,100883
2017-07-15T00:35:15.211Z,100890
2017-07-15T00:37:43.369Z,100893
2017-07-15T00:40:11.519Z,100897
2017-07-15T00:42:39.698Z,100890
2017-07-15T00:45:07.870Z,100885
2017-07-15T00:47:36.070Z,100891
2017-07-15T00:50:04.252Z,100891
2017-07-15T00:52:32.434Z,100877
2017-07-15T00:55:01.415Z,100887
2017-07-15T00:57:29.578Z,100887
2017-07-15T00:59:57.743Z,100882
2017-07-15T01:02:25.938Z,100884
2017-07-15T01:04:54.104Z,100883
2017-07-15T01:07:22.273Z,100888
2017-07-15T01:09:50.460Z,100891
2017-07-15T01:12:18.679Z,100886
2017-07-15T01:14:46.806Z,100889
2017-07-15T01:17:15.796Z,100898
2017-07-15T01:19:43.926Z,100894
2017-07-15T01:22:12.078Z,100893
2017-07-15T01:24:40.262Z,100904
2017-07-15T01:27:08.430Z,100900
2017-07-15T01:29:36.634Z,100901
2017-07-15T01:32:04.770Z,100902
2017-07-15T01:34:32.898Z,100910
2017-07-15T01:37:01.074Z,100912
2017-07-15T01:39:29.223Z,100908
2017-07-15T01:41:57.437Z,100919
2017-07-15T01:44:26.349Z,100912
2017-07-15T01:46:54.499Z,100910
2017-07-15T01:49:23.439Z,100915
2017-07-15T01:51:51.578Z,100914
2017-07-15T01:54:19.754Z,100922
2017-07-15T01:56:47.958Z,100927
2017-07-15T01:59:16.119Z,100933
2017-07-15T02:01:44.272Z,100923
2017-07-15T02:04:12.442Z,100925
2017-07-15T02:06:40.627Z,100923
2017-07-15T02:09:08.784Z,100916
2017-07-15T02:11:36.943Z,100920
2017-07-15T02:14:05.890Z,100925
2017-07-15T02:16:34.060Z,100926
2017-07-15T02:19:02.235Z,100917
2017-07-15T02:21:30.415Z,100920
2017-07-15T02:23:58.615Z,100917
2017-07-15T02:26:26.811Z,100916
2017-07-15T02:28:55.746Z,100912
2017-07-15T02:31:23.931Z,100920
2017-07-15T02:33:52.139Z,100913
2017-07-15T02:36:21.052Z,100921
2017-07-15T02:38:49.216Z,100918
2017-07-15T02:41:18.175Z,100921
2017-07-15T02:43:46.326Z,100923
2017-07-15T02:46:14.482Z,100931
2017-07-15T02:48:42.689Z,100932
2017-07-15T02:51:10.854Z,100939
2017-07-15T02:53:39.019Z,100935
2017-07-15T02:56:07.195Z,100937
2017-07-15T02:58:35.347Z,100932
2017-07-15T03:01:03.539Z,100940
2017-07-15T03:03:31.683Z,100935
2017-07-15T03:05:59.887Z,100939
2017-07-15T03:08:28.022Z,100942
2017-07-15T03:10:56.190Z,100955
2017-07-15T03:13:24.490Z,100953
2017-07-15T03:15:52.679Z,100961
2017-07-15T03:18:20.805Z,100971
2017-07-15T03:20:48.991Z,100976
2017-07-15T03:23:17.165Z,100979
2017-07-15T03:25:46.182Z,100984
2017-07-15T03:28:14.449Z,100984
2017-07-15T03:30:42.594Z,100984
2017-07-15T03:33:10.800Z,100981
2017-07-15T03:35:39.037Z,100979
2017-07-15T03:38:07.955Z,100983
2017-07-15T03:40:36.149Z,100987
2017-07-15T03:43:04.284Z,100990
2017-07-15T03:45:32.466Z,100986
2017-07-15T03:48:00.617Z,100991
2017-07-15T03:50:29.550Z,100993
2017-07-15T03:52:57.731Z,100988
2017-07-15T03:55:25.914Z,100980
2017-07-15T03:57:54.078Z,100983
2017-07-15T04:00:22.269Z,100988
2017-07-15T04:02:50.430Z,100986
2017-07-15T04:05:18.600Z,100992
2017-07-15T04:07:46.792Z,100990
2017-07-15T04:10:14.987Z,100990
2017-07-15T04:12:43.956Z,100988
2017-07-15T04:15:12.152Z,100986
2017-07-15T04:17:41.120Z,100988
2017-07-15T04:20:09.284Z,100985
2017-07-15T04:22:37.474Z,100985
2017-07-15T04:25:05.685Z,100989
2017-07-15T04:27:33.857Z,100999
2017-07-15T04:30:02.012Z,100994
2017-07-15T04:32:30.962Z,101005
2017-07-15T04:34:59.231Z,100993
2017-07-15T04:37:27.429Z,100987
2017-07-15T04:39:55.637Z,100991
2017-07-15T04:42:24.000Z,100992
2017-07-15T04:44:52.932Z,100999
2017-07-15T04:47:21.080Z,101009
2017-07-15T04:49:49.282Z,101019
2017-07-15T04:52:17.467Z,101017
2017-07-15T04:54:45.669Z,101021
2017-07-15T04:57:13.961Z,101029
2017-07-15T04:59:42.126Z,101030
2017-07-15T05:02:10.302Z,101038
2017-07-15T05:04:38.533Z,101040
2017-07-15T05:07:06.690Z,101043
2017-07-15T05:09:35.283Z,101048
2017-07-15T05:12:03.567Z,101041
2017-07-15T05:14:31.723Z,101058
2017-07-15T05:16:59.927Z,101046
2017-07-15T05:19:28.100Z,101051
2017-07-15T05:21:56.268Z,101053
2017-07-15T05:24:24.456Z,101044
2017-07-15T05:26:52.646Z,101061
2017-07-15T05:29:20.790Z,101063
2017-07-15T05:31:49.048Z,101065
2017-07-15T05:34:17.223Z,101062
2017-07-15T05:36:45.393Z,101059
2017-07-15T05:39:13.609Z,101069
2017-07-15T05:41:41.762Z,101068
2017-07-15T05:44:09.967Z,101058
2017-07-15T05:46:38.116Z,101062
2017-07-15T05:49:06.273Z,101067
2017-07-15T05:51:34.426Z,101055
2017-07-15T05:54:02.613Z,101057
2017-07-15T05:56:30.813Z,101054
2017-07-15T05:58:59.123Z,101056
2017-07-15T06:01:28.078Z,101061
2017-07-15T06:03:56.236Z,101060
2017-07-15T06:06:25.400Z,101063
2017-07-15T06:08:53.584Z,101067
2017-07-15T06:11:21.748Z,101079
2017-07-15T06:13:49.899Z,101087
2017-07-15T06:16:18.312Z,101096
2017-07-15T06:18:46.475Z,101087
2017-07-15T06:21:14.645Z,101101
2017-07-15T06:23:42.865Z,101093
2017-07-15T06:26:11.016Z,101093
2017-07-15T06:28:39.212Z,101106
2017-07-15T06:31:07.366Z,101113
2017-07-15T06:33:35.582Z,101116
2017-07-15T06:36:04.547Z,101109
2017-07-15T06:38:32.694Z,101125
2017-07-15T06:41:00.851Z,101113
2017-07-15T06:43:29.055Z,101109
2017-07-15T06:45:57.202Z,101113
2017-07-15T06:48:25.374Z,101116
2017-07-15T06:50:53.557Z,101121
2017-07-15T06:53:21.736Z,101130
2017-07-15T06:55:49.947Z,101123
2017-07-15T06:58:18.095Z,101124
2017-07-15T07:00:46.249Z,101114
2017-07-15T07:03:14.516Z,101119
2017-07-15T07:05:42.728Z,101126
2017-07-15T07:08:10.874Z,101119
2017-07-15T07:10:39.027Z,101116
2017-07-15T07:13:07.270Z,101121
2017-07-15T07:15:36.195Z,101119
2017-07-15T07:18:04.386Z,101115
2017-07-15T07:20:32.605Z,101121
2017-07-15T07:23:00.767Z,101123
2017-07-15T07:25:28.959Z,101125
2017-07-15T07:27:57.883Z,101133
2017-07-15T07:30:26.042Z,101121
2017-07-15T07:32:54.205Z,101138
2017-07-15T07:35:22.362Z,101138
2017-07-15T07:37:51.321Z,101135
2017-07-15T07:40:19.482Z,101136
2017-07-15T07:42:47.660Z,101133
2017-07-15T07:45:15.791Z,101136
2017-07-15T07:47:43.947Z,101140
2017-07-15T07:50:12.080Z,101149
2017-07-15T07:52:40.243Z,101143
2017-07-15T07:55:08.432Z,101152
2017-07-15T07:57:36.600Z,101145
2017-07-15T08:00:04.749Z,101149
2017-07-15T08:02:32.917Z,101152
2017-07-15T08:05:01.143Z,101158
2017-07-15T08:07:29.318Z,101154
2017-07-15T08:09:57.477Z,101158
2017-07-15T08:12:25.669Z,101162
2017-07-15T08:14:54.600Z,101167
2017-07-15T08:17:22.775Z,101173
2017-07-15T08:19:50.959Z,101169
2017-07-15T08:22:19.120Z,101169
2017-07-15T08:24:47.290Z,101167
2017-07-15T08:27:15.496Z,101179
2017-07-15T08:29:43.668Z,101174
2017-07-15T08:32:11.831Z,101176
2017-07-15T08:34:40.040Z,101175
2017-07-15T08:37:08.203Z,101181
2017-07-15T08:39:36.383Z,101177
2017-07-15T08:42:04.620Z,101173
2017-07-15T08:44:32.776Z,101170
2017-07-15T08:47:00.987Z,101168
2017-07-15T08:49:29.163Z,101171
2017-07-15T08:51:57.315Z,101171
2017-07-15T08:54:25.480Z,101174
2017-07-15T08:56:53.682Z,101174
2017-07-15T08:59:21.834Z,101172
2017-07-15T09:01:49.980Z,101182
2017-07-15T09:04:18.157Z,101179
2017-07-15T09:06:46.349Z,101179
2017-07-15T09:09:14.537Z,101171
2017-07-15T09:11:42.705Z,101173
2017-07-15T09:14:10.901Z,101171
2017-07-15T09:16:39.083Z,101168
2017-07-15T09:19:07.243Z,101166
2017-07-15T09:21:35.454Z,101162
2017-07-15T09:24:04.480Z,101162
2017-07-15T09:26:32.662Z,101159
2017-07-15T09:29:00.829Z,101167
2017-07-15T09:31:28.984Z,101167
2017-07-15T09:33:57.198Z,101164
2017-07-15T09:36:25.448Z,101163
2017-07-15T09:38:53.602Z,101174
2017-07-15T09:41:21.784Z,101166
2017-07-15T09:43:49.946Z,101173
2017-07-15T09:46:18.114Z,101180
2017-07-15T09:48:46.558Z,101185
2017-07-15T09:51:19.600Z,101190
2017-07-15T09:53:47.821Z,101183
2017-07-15T09:56:15.984Z,101191
2017-07-15T09:58:44.156Z,101200
2017-07-15T10:01:12.355Z,101189
2017-07-15T10:03:41.289Z,101191
2017-07-15T10:06:09.451Z,101191
2017-07-15T10:08:37.636Z,101206
2017-07-15T10:11:05.896Z,101193
2017-07-15T10:13:34.066Z,101195
2017-07-15T10:16:02.209Z,101193
2017-07-15T10:18:31.180Z,101195
2017-07-15T10:20:59.334Z,101185
2017-07-15T10:23:27.604Z,101199
2017-07-15T10:25:55.812Z,101194
2017-07-15T10:28:23.951Z,101194
2017-07-15T10:30:52.105Z,101195
2017-07-15T10:33:20.309Z,101199
2017-07-15T10:35:48.465Z,101191
2017-07-15T10:38:16.672Z,101191
2017-07-15T10:40:44.845Z,101188
2017-07-15T10:43:13.018Z,101193
2017-07-15T10:45:41.245Z,101196
2017-07-15T10:48:09.393Z,101197
2017-07-15T10:50:37.602Z,101201
2017-07-15T10:53:05.778Z,101203
2017-07-15T10:55:33.963Z,101200
2017-07-15T10:58:02.107Z,101195
2017-07-15T11:00:30.287Z,101205
2017-07-15T11:02:58.475Z,101200
2017-07-15T11:05:26.666Z,101204
2017-07-15T11:07:54.868Z,101200
2017-07-15T11:10:23.797Z,101194
2017-07-15T11:12:51.983Z,101199
2017-07-15T11:15:20.201Z,101194
2017-07-15T11:17:48.384Z,101193
2017-07-15T11:20:17.312Z,101189
2017-07-15T11:22:45.534Z,101192
2017-07-15T11:25:13.747Z,101184
2017-07-15T11:27:41.901Z,101195
2017-07-15T11:30:10.882Z,101183
2017-07-15T11:32:39.015Z,101182
2017-07-15T11:35:07.183Z,101191
2017-07-15T11:37:35.341Z,101188
2017-07-15T11:40:03.527Z,101194
2017-07-15T11:42:31.691Z,101203
2017-07-15T11:44:59.866Z,101196
2017-07-15T11:47:28.026Z,101205
2017-07-15T11:49:56.216Z,101204
2017-07-15T11:52:24.528Z,101207
2017-07-15T11:54:52.680Z,101211
2017-07-15T11:57:20.932Z,101207
2017-07-15T11:59:49.092Z,101196
2017-07-15T12:02:17.269Z,101195
2017-07-15T12:04:45.467Z,101201
2017-07-15T12:07:13.619Z,101197
2017-07-15T12:09:41.755Z,101195
2017-07-15T12:12:10.708Z,101196
2017-07-15T12:14:38.851Z,101196
2017-07-15T12:17:07.007Z,101190
2017-07-15T12:19:35.957Z,101190
2017-07-15T12:22:04.095Z,101189
2017-07-15T12:24:32.238Z,101192
2017-07-15T12:27:01.207Z,101203
2017-07-15T12:29:29.377Z,101203
2017-07-15T12:31:57.619Z,101193
2017-07-15T12:34:25.807Z,101201
2017-07-15T12:36:53.961Z,101198
2017-07-15T12:39:22.116Z,101201
2017-07-15T12:41:50.337Z,101201
2017-07-15T12:44:18.494Z,101204
2017-07-15T12:46:46.666Z,101205
2017-07-15T12:49:14.841Z,101202
2017-07-15T12:51:43.029Z,101208
2017-07-15T12:54:11.271Z,101194
2017-07-15T12:56:39.547Z,101203
2017-07-15T12:59:07.767Z,101197
2017-07-15T13:01:35.933Z,101195
2017-07-15T13:04:04.113Z,101197
2017-07-15T13:06:32.301Z,101195
2017-07-15T13:09:01.291Z,101192
2017-07-15T13:11:29.440Z,101194
2017-07-15T13:13:57.612Z,101193
2017-07-15T13:16:25.806Z,101187
2017-07-15T13:18:53.955Z,101196
2017-07-15T13:21:22.139Z,101195
2017-07-15T13:23:50.303Z,101204
2017-07-15T13:26:18.480Z,101186
2017-07-15T13:28:46.670Z,101192
2017-07-15T13:31:14.823Z,101187
2017-07-15T13:33:42.993Z,101179
2017-07-15T13:36:11.206Z,101179
2017-07-15T13:38:40.122Z,101177
2017-07-15T13:41:08.362Z,101182
2017-07-15T13:43:36.515Z,101174
2017-07-15T13:46:04.700Z,101184
2017-07-15T13:48:32.998Z,101190
2017-07-15T13:51:01.935Z,101182
2017-07-15T13:53:30.126Z,101188
2017-07-15T13:55:58.306Z,101191
2017-07-15T13:58:26.492Z,101195
2017-07-15T14:00:54.681Z,101197
2017-07-15T14:03:22.829Z,101190
2017-07-15T14:05:50.986Z,101192
2017-07-15T14:08:19.197Z,101187
2017-07-15T14:10:48.105Z,101197
2017-07-15T14:13:16.282Z,101201
2017-07-15T14:15:44.469Z,101197
2017-07-15T14:18:12.668Z,101209
2017-07-15T14:20:40.852Z,101200
2017-07-15T14:23:09.003Z,101204
2017-07-15T14:25:37.193Z,101206
2017-07-15T14:28:05.391Z,101206
2017-07-15T14:30:33.543Z,101197
2017-07-15T14:33:01.701Z,101197
2017-07-15T14:35:29.852Z,101197
2017-07-15T14:37:58.034Z,101197
2017-07-15T14:40:26.182Z,101199
2017-07-15T14:42:54.357Z,101204
2017-07-15T14:45:22.653Z,101200
2017-07-15T14:47:50.838Z,101199
2017-07-15T14:50:19.072Z,101205
2017-07-15T14:52:47.248Z,101199
2017-07-15T14:55:15.550Z,101196
2017-07-15T14:57:43.664Z,101211
2017-07-15T15:00:11.827Z,101206
2017-07-15T15:02:39.996Z,101210
2017-07-15T15:05:08.208Z,101210
2017-07-15T15:07:36.421Z,101204
2017-07-15T15:10:04.620Z,101198
2017-07-15T15:12:32.772Z,101200
2017-07-15T15:15:00.939Z,101196
2017-07-15T15:17:29.089Z,101198
2017-07-15T15:19:57.279Z,101198
2017-07-15T15:22:25.436Z,101193
2017-07-15T15:24:53.599Z,101197
2017-07-15T15:27:21.780Z,101190
2017-07-15T15:29:49.940Z,101194
2017-07-15T15:32:18.894Z,101195
2017-07-15T15:34:47.067Z,101189
2017-07-15T15:37:15.224Z,101172
2017-07-15T15:39:43.390Z,101175
2017-07-15T15:42:11.546Z,101178
2017-07-15T15:44:39.696Z,101177
2017-07-15T15:47:07.946Z,101178
2017-07-15T15:49:36.109Z,101176
2017-07-15T15:52:04.312Z,101184
2017-07-15T15:54:33.301Z,101184
2017-07-15T15:57:01.520Z,101179
2017-07-15T15:59:29.686Z,101182
2017-07-15T16:01:57.864Z,101177
2017-07-15T16:04:26.066Z,101180
2017-07-15T16:06:54.239Z,101181
2017-07-15T16:09:22.400Z,101185
2017-07-15T16:11:50.617Z,101171
2017-07-15T16:14:19.564Z,101181
2017-07-15T16:16:47.723Z,101181
2017-07-15T16:19:15.883Z,101175
2017-07-15T16:21:44.048Z,101169
2017-07-15T16:24:12.191Z,101180
2017-07-15T16:26:41.094Z,101172
2017-07-15T16:29:09.331Z,101168
2017-07-15T16:31:37.477Z,101170
2017-07-15T16:34:05.640Z,101170
2017-07-15T16:36:33.823Z,101174
2017-07-15T16:39:02.058Z,101170
2017-07-15T16:41:31.066Z,101177
2017-07-15T16:43:59.222Z,101174
2017-07-15T16:46:28.186Z,101174
2017-07-15T16:48:56.345Z,101169
2017-07-15T16:51:24.504Z,101173
2017-07-15T16:53:52.694Z,101169
2017-07-15T16:56:20.840Z,101179
2017-07-15T16:58:49.038Z,101178
2017-07-15T17:01:17.215Z,101181
2017-07-15T17:03:45.424Z,101178
2017-07-15T17:06:14.344Z,101184
2017-07-15T17:08:42.558Z,101182
2017-07-15T17:11:10.720Z,101184
2017-07-15T17:13:38.909Z,101181
2017-07-15T17:16:07.111Z,101179
2017-07-15T17:18:36.334Z,101184
2017-07-15T17:21:04.516Z,101183
2017-07-15T17:23:32.669Z,101187
2017-07-15T17:26:00.898Z,101187
2017-07-15T17:28:29.073Z,101181
2017-07-15T17:30:57.235Z,101187
2017-07-15T17:33:25.385Z,101184
2017-07-15T17:35:53.609Z,101180
2017-07-15T17:38:21.767Z,101184
2017-07-15T17:40:49.953Z,101185
2017-07-15T17:43:18.144Z,101187
2017-07-15T17:45:47.184Z,101187
2017-07-15T17:48:15.359Z,101188
2017-07-15T17:50:43.575Z,101188
2017-07-15T17:53:12.501Z,101192
2017-07-15T17:55:40.638Z,101193
2017-07-15T17:58:09.754Z,101189
2017-07-15T18:00:37.919Z,101191
2017-07-15T18:03:06.105Z,101197
2017-07-15T18:05:34.285Z,101196
2017-07-15T18:08:02.433Z,101191
2017-07-15T18:10:31.407Z,101199
2017-07-15T18:12:59.556Z,101190
2017-07-15T18:15:27.686Z,101188
2017-07-15T18:17:55.891Z,101196
2017-07-15T18:20:24.096Z,101203
2017-07-15T18:22:52.256Z,101196
2017-07-15T18:25:20.450Z,101196
2017-07-15T18:27:48.704Z,101199
2017-07-15T18:30:17.038Z,101202
2017-07-15T18:32:45.209Z,101192
2017-07-15T18:35:13.424Z,101203
2017-07-15T18:37:41.602Z,101199
2017-07-15T18:40:09.774Z,101199
2017-07-15T18:42:37.947Z,101208
2017-07-15T18:45:06.119Z,101197
2017-07-15T18:47:34.400Z,101207
2017-07-15T18:50:02.515Z,101203
2017-07-15T18:52:30.689Z,101216
2017-07-15T18:54:59.642Z,101209
2017-07-15T18:57:27.815Z,101212
2017-07-15T18:59:55.977Z,101215
2017-07-15T19:02:24.161Z,101221
2017-07-15T19:04:52.326Z,101224
2017-07-15T19:07:20.491Z,101222
2017-07-15T19:09:48.716Z,101227
2017-07-15T19:12:16.931Z,101228
2017-07-15T19:14:45.084Z,101240
2017-07-15T19:17:13.254Z,101245
2017-07-15T19:19:41.447Z,101240
2017-07-15T19:22:09.604Z,101235
2017-07-15T19:24:37.809Z,101241
2017-07-15T19:27:05.991Z,101246
2017-07-15T19:29:34.161Z,101245
2017-07-15T19:32:02.391Z,101252
2017-07-15T19:34:32.231Z,101255
2017-07-15T19:37:00.371Z,101253
2017-07-15T19:39:28.578Z,101253
2017-07-15T19:41:56.732Z,101247
2017-07-15T19:44:24.910Z,101261
2017-07-15T19:46:53.115Z,101257
2017-07-15T19:49:21.301Z,101258
2017-07-15T19:51:49.491Z,101254
2017-07-15T19:54:18.439Z,101260
2017-07-15T19:56:46.600Z,101256
2017-07-15T19:59:14.787Z,101255
2017-07-15T20:01:42.952Z,101261
2017-07-15T20:04:11.154Z,101256
2017-07-15T20:06:39.328Z,101265
2017-07-15T20:09:07.505Z,101263
2017-07-15T20:11:35.713Z,101261
2017-07-15T20:14:04.655Z,101270
2017-07-15T20:16:32.817Z,101272
2017-07-15T20:19:00.979Z,101278
2017-07-15T20:21:29.185Z,101273
2017-07-15T20:23:57.370Z,101275
2017-07-15T20:26:25.560Z,101278
2017-07-15T20:28:54.595Z,101280
2017-07-15T20:31:22.769Z,101284
2017-07-15T20:33:51.010Z,101283
2017-07-15T20:36:25.491Z,101274
2017-07-15T20:38:53.689Z,101272
2017-07-15T20:41:21.842Z,101279
2017-07-15T20:43:50.020Z,101281
2017-07-15T20:46:18.189Z,101280
2017-07-15T20:48:46.484Z,101288
2017-07-15T20:51:15.422Z,101288
2017-07-15T20:53:49.017Z,101287
2017-07-15T20:56:17.191Z,101282
2017-07-15T20:58:45.370Z,101278
2017-07-15T21:01:13.547Z,101279
2017-07-15T21:03:41.734Z,101280
2017-07-15T21:06:09.863Z,101273
2017-07-15T21:08:38.044Z,101281
2017-07-15T21:11:06.222Z,101282
2017-07-15T21:13:34.660Z,101283
2017-07-15T21:16:03.606Z,101284
2017-07-15T21:18:31.781Z,101283
2017-07-15T21:20:59.995Z,101277
2017-07-15T21:23:28.918Z,101278
2017-07-15T21:25:57.182Z,101281
2017-07-15T21:28:25.396Z,101280
2017-07-15T21:30:53.647Z,101279
2017-07-15T21:33:21.750Z,101279
2017-07-15T21:35:50.017Z,101279
2017-07-15T21:38:18.230Z,101275
2017-07-15T21:40:46.382Z,101275
2017-07-15T21:43:14.525Z,101283
2017-07-15T21:45:42.717Z,101291
2017-07-15T21:48:10.889Z,101285
2017-07-15T21:50:39.055Z,101283
2017-07-15T21:53:07.261Z,101278
2017-07-15T21:55:35.414Z,101272
2017-07-15T21:58:03.647Z,101280
2017-07-15T22:00:31.823Z,101287
2017-07-15T22:02:59.939Z,101290
2017-07-15T22:05:28.138Z,101290
2017-07-15T22:07:57.063Z,101277
2017-07-15T22:10:25.243Z,101281
2017-07-15T22:12:53.520Z,101286
2017-07-15T22:15:21.707Z,101286
2017-07-15T22:17:49.863Z,101283
2017-07-15T22:20:18.043Z,101289
2017-07-15T22:22:46.270Z,101285
2017-07-15T22:25:14.409Z,101287
2017-07-15T22:27:42.567Z,101288
2017-07-15T22:30:10.788Z,101285
2017-07-15T22:32:39.706Z,101287
2017-07-15T22:35:07.879Z,101291
2017-07-15T22:37:36.059Z,101292
2017-07-15T22:40:04.242Z,101289
2017-07-15T22:42:32.367Z,101287
2017-07-15T22:45:01.751Z,101286
2017-07-15T22:47:29.911Z,101296
2017-07-15T22:49:58.087Z,101288
2017-07-15T22:52:26.461Z,101281
2017-07-15T22:54:54.618Z,101293
2017-07-15T22:57:22.768Z,101289
2017-07-15T22:59:50.980Z,101283
2017-07-15T23:02:19.139Z,101283
2017-07-15T23:04:47.295Z,101282
2017-07-15T23:07:15.426Z,101296
2017-07-15T23:09:44.419Z,101294
2017-07-15T23:12:12.564Z,101290
2017-07-15T23:14:40.736Z,101290
2017-07-15T23:17:08.993Z,101298
2017-07-15T23:19:37.134Z,101300
2017-07-15T23:22:05.310Z,101297
2017-07-15T23:24:33.573Z,101293
2017-07-15T23:27:02.514Z,101286
2017-07-15T23:29:30.688Z,101294
2017-07-15T23:31:58.895Z,101288
2017-07-15T23:34:27.830Z,101294
2017-07-15T23:36:55.970Z,101297
2017-07-15T23:39:24.930Z,101301
2017-07-15T23:41:53.090Z,101297
2017-07-15T23:44:21.270Z,101298
2017-07-15T23:46:49.454Z,101285
2017-07-15T23:49:17.607Z,101281
2017-07-15T23:51:45.806Z,101283
2017-07-15T23:54:13.990Z,101288
2017-07-15T23:56:42.187Z,101286
2017-07-15T23:59:11.112Z,101276
